aviador You're here:

SKRG Decoded Metar

RIO NEGRO in COLOMBIA
Report Time2017-10-20 12:00:00
UTC Time2017-10-20 12:30:01
Flight Rules vfr VFR
Wind190° at 03 kt
W.Decomp.*RWY 18: 2.9 kt HW 0.8 kt RCW
W.Rank190° ranks 30
Current wind is below 190° avg. (4.9)
Visibility8000 m
Phenomena:Vicinity Fog
Clouds:Scattered 008 Hf
Scattered 200 Hf
CeilingNone
Temp15°C (ISA +14)
Dew Point15°C (100% RH)
QNH1024 hPa
Density Alt8,527 ft
Elevation7,020 ft
Report Wrong Elevation
Raw Report
METAR SKRG 201200Z 19003KT 8000 VCFG SCT008 SCT200 15/15 A3025 RMK
VCFG/S=

Extra information for SKRG:More info

Metar Taf Metar & Taf Last 4 Metars F.Rules Stats Wind Profile Meteogram Temp Stats Airport Information Weather charts Add Link Nearby VenuesMetar ALERT Operation Metar Decoded Social comments